Time;durP1;ratioP1;P1;durP2;ratioP2;P2;SDS_P1;SDS_P2;PMS_P1;PMS_P2;Temp;Humidity;BMP_temperature;BMP_pressure;BME280_temperature;BME280_humidity;BME280_pressure;Samples;Min_cycle;Max_cycle;Signal;HPM_P1;HPM_P2
2021/10/29 00:04:58;;;;;;;66.90;36.50;;;;;;;4.58;72.85;99223.12;235843;1193;24794;-73
2021/10/29 00:10:22;;;;;;;70.00;36.30;;;;;;;4.54;73.04;99223.13;235750;1198;24041;-74
2021/10/29 00:15:27;;;;;;;67.40;36.10;;;;;;;4.53;73.16;99220.45;236016;1198;23990;-75
2021/10/29 00:20:30;;;;;;;79.00;39.10;;;;;;;4.46;72.91;99221.78;235753;1197;24079;-73
2021/10/29 00:25:33;;;;;;;90.10;41.60;;;;;;;4.30;72.49;99217.02;235741;1197;24187;-75
2021/10/29 00:30:36;;;;;;;80.60;41.30;;;;;;;4.19;72.91;99213.56;235779;1197;24037;-74
2021/10/29 00:35:39;;;;;;;83.80;41.50;;;;;;;4.11;73.07;99214.38;235594;1190;25187;-75
2021/10/29 00:40:42;;;;;;;82.30;42.30;;;;;;;4.03;73.21;99209.98;235627;1197;25266;-74
2021/10/29 00:45:45;;;;;;;88.30;44.10;;;;;;;3.97;73.29;99204.75;235657;1190;24053;-75
2021/10/29 00:50:47;;;;;;;100.00;47.60;;;;;;;3.84;73.30;99198.77;235717;1197;22426;-74
2021/10/29 00:55:54;;;;;;;96.30;49.10;;;;;;;3.68;73.25;99198.48;235687;1197;22439;-75
2021/10/29 01:00:57;;;;;;;106.20;50.60;;;;;;;3.57;73.50;99189.40;235672;1198;24057;-73
2021/10/29 01:06:14;;;;;;;106.90;50.30;;;;;;;3.48;73.71;99176.11;235763;1190;24202;-73
2021/10/29 01:11:42;;;;;;;101.40;50.20;;;;;;;3.39;74.08;99172.27;236004;1197;25240;-75
2021/10/29 01:16:45;;;;;;;101.20;48.40;;;;;;;3.34;74.15;99170.63;235688;1197;24144;-75
2021/10/29 01:21:47;;;;;;;96.30;48.70;;;;;;;3.32;74.36;99166.71;235572;1198;24599;-76
2021/10/29 01:26:50;;;;;;;92.10;44.80;;;;;;;3.31;74.58;99168.05;235826;1197;24102;-75
2021/10/29 01:31:53;;;;;;;90.70;45.50;;;;;;;3.31;74.89;99164.10;235568;1190;24054;-74
2021/10/29 01:36:55;;;;;;;83.80;43.80;;;;;;;3.28;74.69;99160.38;235785;1197;22420;-75
2021/10/29 01:41:58;;;;;;;82.90;43.90;;;;;;;3.22;74.77;99155.00;235663;1190;24203;-72
2021/10/29 01:47:03;;;;;;;81.30;42.20;;;;;;;3.18;74.76;99152.05;235665;1183;24126;-72
2021/10/29 01:52:08;;;;;;;84.20;42.10;;;;;;;3.16;74.92;99146.77;236139;1197;24104;-74
2021/10/29 01:57:12;;;;;;;79.00;41.30;;;;;;;3.11;74.90;99139.80;236092;1190;22429;-73
2021/10/29 02:02:15;;;;;;;81.00;39.50;;;;;;;3.05;75.04;99139.79;236132;1184;24894;-74
2021/10/29 02:07:18;;;;;;;70.30;38.30;;;;;;;3.01;74.99;99131.88;235840;1197;25336;-75
2021/10/29 02:12:21;;;;;;;78.30;39.30;;;;;;;3.00;75.21;99129.45;235654;1190;24085;-76
2021/10/29 02:17:25;;;;;;;73.00;38.60;;;;;;;2.95;75.34;99123.46;235437;1190;22447;-74
2021/10/29 02:22:28;;;;;;;71.70;37.80;;;;;;;2.93;75.43;99118.70;235710;1192;22579;-75
2021/10/29 02:27:32;;;;;;;71.00;37.40;;;;;;;2.91;75.43;99121.21;235665;1196;25272;-75
2021/10/29 02:32:36;;;;;;;66.10;37.50;;;;;;;2.91;75.76;99122.22;235787;1197;24203;-74
2021/10/29 02:37:38;;;;;;;70.70;36.20;;;;;;;2.85;75.47;99124.83;235610;1198;24121;-73
2021/10/29 02:42:41;;;;;;;65.50;34.90;;;;;;;2.74;75.16;99115.89;235522;1192;25194;-73
2021/10/29 02:47:48;;;;;;;64.00;34.70;;;;;;;2.66;75.35;99114.37;235815;1197;24561;-73
2021/10/29 02:52:51;;;;;;;66.00;35.90;;;;;;;2.57;75.20;99119.59;235748;1190;23986;-74
2021/10/29 02:57:54;;;;;;;63.40;34.70;;;;;;;2.53;75.44;99122.27;235759;1198;25251;-73
2021/10/29 03:03:12;;;;;;;73.10;38.10;;;;;;;2.52;75.51;99121.98;235911;1190;24092;-73
2021/10/29 03:08:17;;;;;;;60.30;34.50;;;;;;;2.44;75.41;99120.03;235618;1190;24127;-75
2021/10/29 03:13:24;;;;;;;75.20;36.10;;;;;;;2.31;75.13;99117.90;235676;1197;22483;-74
2021/10/29 03:18:27;;;;;;;77.00;38.50;;;;;;;2.20;75.14;99113.98;235768;1190;22518;-73
2021/10/29 03:23:32;;;;;;;69.10;35.00;;;;;;;2.15;75.42;99108.31;235744;1193;22509;-73
2021/10/29 03:28:35;;;;;;;67.20;36.20;;;;;;;2.10;75.60;99103.83;235639;1198;24184;-75
2021/10/29 03:33:40;;;;;;;67.80;35.90;;;;;;;2.05;75.80;99106.09;235801;1194;24046;-73
2021/10/29 03:43:58;;;;;;;68.40;33.60;;;;;;;2.01;76.10;99107.24;235542;1198;24085;-75
2021/10/29 03:59:12;;;;;;;56.10;31.10;;;;;;;2.22;76.89;99101.66;235624;1198;22643;-75
2021/10/29 04:04:17;;;;;;;51.70;28.70;;;;;;;2.32;76.94;99098.33;235745;1197;22910;-73
2021/10/29 04:09:19;;;;;;;52.40;28.80;;;;;;;2.44;77.20;99099.61;235619;1197;22578;-78
2021/10/29 04:14:27;;;;;;;53.20;30.30;;;;;;;2.53;77.01;99097.30;235512;1196;24077;-73
2021/10/29 04:19:30;;;;;;;52.00;30.00;;;;;;;2.57;76.78;99092.41;235688;1198;22567;-74
2021/10/29 04:24:33;;;;;;;60.60;32.00;;;;;;;2.57;76.61;99093.95;236059;1191;22609;-75
2021/10/29 04:29:42;;;;;;;54.60;31.30;;;;;;;2.59;76.62;99092.84;235846;1197;24039;-75
2021/10/29 04:34:56;;;;;;;49.90;29.80;;;;;;;2.60;76.65;99090.53;235779;1194;24088;-73
2021/10/29 04:39:58;;;;;;;56.00;30.50;;;;;;;2.63;76.98;99091.23;235836;1197;24906;-75
2021/10/29 04:45:02;;;;;;;52.70;30.00;;;;;;;2.67;76.96;99091.97;235529;1198;25319;-75
2021/10/29 04:50:18;;;;;;;62.70;32.60;;;;;;;2.65;76.58;99088.78;235773;1190;25136;-73
2021/10/29 04:55:24;;;;;;;54.20;30.00;;;;;;;2.56;76.27;99085.53;235762;1198;22431;-76
2021/10/29 05:00:26;;;;;;;49.60;29.60;;;;;;;2.54;76.53;99077.08;236140;1197;24085;-73
2021/10/29 05:05:35;;;;;;;50.40;28.20;;;;;;;2.55;76.73;99078.20;235658;1197;23996;-75
2021/10/29 05:10:37;;;;;;;55.50;29.80;;;;;;;2.49;76.26;99077.56;235804;1198;22467;-75
2021/10/29 05:15:41;;;;;;;56.60;30.40;;;;;;;2.43;76.43;99082.98;235583;1197;22443;-74
2021/10/29 05:20:50;;;;;;;52.00;30.60;;;;;;;2.39;76.30;99080.30;235583;1198;25160;-75
2021/10/29 05:25:53;;;;;;;50.30;29.10;;;;;;;2.39;76.49;99084.80;235636;1198;24072;-73
2021/10/29 05:30:55;;;;;;;57.10;31.10;;;;;;;2.40;76.60;99082.54;235650;1197;25656;-73
2021/10/29 05:35:59;;;;;;;57.40;31.90;;;;;;;2.37;76.55;99081.41;236098;1197;22435;-74
2021/10/29 05:41:04;;;;;;;62.60;32.90;;;;;;;2.30;76.31;99078.83;235693;1190;22581;-75
2021/10/29 05:46:13;;;;;;;60.20;32.80;;;;;;;2.24;76.26;99080.30;235950;1190;23001;-75
2021/10/29 05:51:19;;;;;;;62.70;33.50;;;;;;;2.19;76.15;99083.48;236202;1190;23255;-72
2021/10/29 05:56:22;;;;;;;73.10;34.50;;;;;;;2.13;76.27;99082.81;236130;1190;24043;-75
2021/10/29 06:01:25;;;;;;;87.40;30.50;;;;;;;2.14;76.54;99084.43;236135;1197;22419;-73
2021/10/29 06:06:28;;;;;;;58.80;32.40;;;;;;;2.16;76.43;99089.99;236598;1190;25157;-73
2021/10/29 06:11:31;;;;;;;64.80;33.30;;;;;;;2.18;76.44;99083.75;236975;1197;24498;-73
2021/10/29 06:16:35;;;;;;;59.00;31.90;;;;;;;2.27;76.57;99087.20;238073;1190;25186;-74
2021/10/29 06:21:46;;;;;;;57.10;32.80;;;;;;;2.42;76.85;99087.52;236700;1192;22475;-72
2021/10/29 06:27:02;;;;;;;50.10;27.30;;;;;;;2.56;76.80;99095.73;236386;1193;25245;-73
2021/10/29 06:32:06;;;;;;;64.20;35.70;;;;;;;2.67;76.63;99100.17;236399;1190;22440;-73
2021/10/29 06:37:17;;;;;;;55.70;33.30;;;;;;;2.81;76.56;99110.46;236019;1196;23960;-74
2021/10/29 06:42:31;;;;;;;58.90;31.30;;;;;;;3.00;76.59;99112.67;236195;1197;23986;-74
2021/10/29 06:47:48;;;;;;;67.20;34.60;;;;;;;3.17;76.85;99112.85;236664;1197;24593;-73
2021/10/29 07:41:10;;;;;;;41.50;24.90;;;;;;;6.63;74.42;99108.51;236056;1197;24054;-75
2021/10/29 07:46:13;;;;;;;38.50;24.20;;;;;;;6.86;74.08;99108.67;236103;1197;24049;-75
2021/10/29 07:51:16;;;;;;;41.50;25.70;;;;;;;7.10;73.86;99110.11;236158;1197;22779;-75
2021/10/29 07:56:19;;;;;;;39.30;24.70;;;;;;;7.33;73.57;99108.02;236601;1198;25260;-78
2021/10/29 08:01:26;;;;;;;46.70;25.70;;;;;;;7.55;72.87;99113.86;236056;1190;25160;-76
2021/10/29 08:06:29;;;;;;;50.20;28.20;;;;;;;7.74;72.16;99114.11;236141;1197;22464;-76
2021/10/29 08:11:31;;;;;;;46.10;28.10;;;;;;;7.98;72.23;99116.96;235826;1197;22443;-76
2021/10/29 08:16:35;;;;;;;43.40;26.60;;;;;;;8.23;71.90;99118.20;235944;1190;24140;-75
2021/10/29 08:21:37;;;;;;;41.80;25.70;;;;;;;8.48;71.49;99123.05;236066;1190;22635;-76
2021/10/29 08:26:40;;;;;;;37.30;23.30;;;;;;;8.71;71.05;99115.17;235982;1190;22419;-82
2021/10/29 08:31:42;;;;;;;37.40;22.10;;;;;;;8.91;70.42;99118.27;236205;1190;24081;-78
2021/10/29 08:36:45;;;;;;;38.20;23.30;;;;;;;9.10;69.88;99109.48;236176;1190;24187;-72
2021/10/29 08:41:48;;;;;;;34.10;21.40;;;;;;;9.33;69.54;99111.52;236124;1197;22462;-75
2021/10/29 08:46:51;;;;;;;36.70;22.80;;;;;;;9.59;69.43;99104.52;236177;1190;25305;-74
2021/10/29 08:51:54;;;;;;;33.00;20.00;;;;;;;9.86;69.07;99102.33;236146;1198;24244;-74
2021/10/29 08:57:00;;;;;;;30.40;18.30;;;;;;;10.09;67.93;99101.23;235948;1193;24130;-72
2021/10/29 09:02:28;;;;;;;31.40;19.00;;;;;;;10.30;66.52;99100.09;236128;1198;24042;-75
2021/10/29 09:34:24;;;;;;;27.10;18.30;;;;;;;11.56;63.46;99103.58;236001;1197;25425;-73
2021/10/29 09:39:27;;;;;;;28.40;17.80;;;;;;;11.72;63.04;99104.34;235938;1190;22443;-73
2021/10/29 09:44:52;;;;;;;28.10;18.20;;;;;;;11.87;62.89;99104.27;235923;1198;22497;-75
2021/10/29 09:50:13;;;;;;;26.40;17.00;;;;;;;12.01;62.39;99099.45;236238;1190;22503;-73
2021/10/29 09:55:53;;;;;;;26.60;18.40;;;;;;;12.16;61.80;99096.80;236392;1190;22450;-73
2021/10/29 10:01:03;;;;;;;28.90;18.80;;;;;;;12.28;60.72;99096.38;236230;1193;23743;-72
2021/10/29 10:06:07;;;;;;;28.50;17.70;;;;;;;12.41;60.76;99086.77;236000;1193;25329;-77
2021/10/29 10:11:22;;;;;;;29.30;17.30;;;;;;;12.60;60.55;99085.56;235987;1197;24545;-74
2021/10/29 10:16:39;;;;;;;21.20;15.20;;;;;;;12.79;59.93;99079.44;235976;1190;24042;-75
2021/10/29 10:22:06;;;;;;;25.20;16.00;;;;;;;12.95;57.81;99076.84;236007;1198;24171;-75
2021/10/29 10:48:18;;;;;;;10.10;7.10;;;;;;;13.94;54.62;99044.33;235996;1198;24591;-78
2021/10/29 10:53:30;;;;;;;14.50;8.50;;;;;;;14.14;53.24;99045.76;236707;1198;22465;-76
2021/10/29 10:58:54;;;;;;;13.50;8.30;;;;;;;14.30;51.72;99036.61;236109;1197;24069;-75
2021/10/29 11:15:13;;;;;;;11.50;6.30;;;;;;;14.89;48.24;99021.15;235809;1197;22451;-76
2021/10/29 11:20:40;;;;;;;7.90;5.20;;;;;;;15.06;48.51;99015.98;235882;1198;22821;-76
2021/10/29 11:25:52;;;;;;;9.90;5.90;;;;;;;15.18;46.87;99013.86;236009;1198;22450;-77
2021/10/29 11:30:57;;;;;;;7.40;5.60;;;;;;;15.28;46.81;99009.00;235988;1190;24683;-75
2021/10/29 11:36:05;;;;;;;10.40;7.10;;;;;;;15.36;46.77;99000.30;236008;1192;22425;-75
2021/10/29 11:41:17;;;;;;;8.60;5.60;;;;;;;15.46;45.35;99000.56;236105;1193;25105;-76
2021/10/29 11:46:23;;;;;;;9.40;5.80;;;;;;;15.58;46.09;98996.48;236212;1190;25098;-76
2021/10/29 11:51:26;;;;;;;26.20;18.30;;;;;;;15.69;45.14;98989.08;236161;1196;22495;-76
2021/10/29 12:12:43;;;;;;;12.50;7.80;;;;;;;16.28;42.46;98967.45;235746;1197;24053;-74
2021/10/29 12:17:58;;;;;;;10.40;7.20;;;;;;;16.38;43.61;98962.25;236284;1197;22400;-76
2021/10/29 12:23:15;;;;;;;9.60;6.50;;;;;;;16.44;42.80;98962.05;236232;1189;22546;-77
2021/10/29 12:28:42;;;;;;;10.40;6.90;;;;;;;16.51;43.24;98952.80;236241;1197;22450;-76
2021/10/29 13:05:39;;;;;;;8.80;6.30;;;;;;;16.72;42.90;98922.79;236196;1197;22448;-76
2021/10/29 13:10:42;;;;;;;10.70;6.60;;;;;;;16.75;42.38;98918.77;236094;1192;24044;-76
2021/10/29 13:15:47;;;;;;;10.10;6.90;;;;;;;16.76;41.64;98912.86;236590;1190;22452;-77
2021/10/29 14:30:24;;;;;;;5.60;3.80;;;;;;;15.79;40.77;98894.13;236022;1190;23993;-79
2021/10/29 14:34:59;;;;;;;7.90;3.40;;;;;;;15.68;40.44;98894.39;235966;1197;22445;-75
2021/10/29 14:45:23;;;;;;;6.70;4.00;;;;;;;15.42;40.26;98895.02;236054;1197;24124;-77
2021/10/29 15:33:25;;;;;;;8.90;5.80;;;;;;;13.77;40.35;98872.88;235793;1198;23992;-76
2021/10/29 15:44:12;;;;;;;9.80;5.60;;;;;;;13.35;40.65;98873.73;234618;1193;24081;-78
2021/10/29 15:54:18;;;;;;;10.60;6.20;;;;;;;13.01;40.81;98867.27;235782;1197;22462;-76
2021/10/29 15:59:47;;;;;;;7.90;5.50;;;;;;;12.87;40.93;98867.50;235740;1197;25436;-77
2021/10/29 16:20:54;;;;;;;12.00;6.70;;;;;;;12.32;41.24;98859.01;237725;1197;24072;-76
2021/10/29 16:26:04;;;;;;;10.50;6.40;;;;;;;12.15;41.60;98860.13;235919;1197;24014;-76
2021/10/29 16:31:11;;;;;;;12.50;6.30;;;;;;;11.97;41.66;98858.89;235788;1198;22435;-79
2021/10/29 16:36:16;;;;;;;9.90;5.60;;;;;;;11.80;41.82;98862.05;235843;1183;22458;-78
2021/10/29 16:41:18;;;;;;;10.00;5.80;;;;;;;11.65;42.04;98860.85;235892;1192;24088;-75
2021/10/29 16:46:21;;;;;;;10.00;6.10;;;;;;;11.47;42.42;98860.37;235828;1197;24047;-75
2021/10/29 16:51:25;;;;;;;12.20;7.20;;;;;;;11.27;42.57;98864.90;236188;1190;22463;-77
2021/10/29 16:56:29;;;;;;;11.20;7.00;;;;;;;11.07;43.11;98871.93;235752;1198;24020;-77
2021/10/29 17:01:33;;;;;;;14.30;6.70;;;;;;;10.85;43.38;98869.33;235619;1195;24047;-76
2021/10/29 17:06:37;;;;;;;11.90;7.40;;;;;;;10.67;43.62;98867.29;235716;1192;24158;-77
2021/10/29 17:11:41;;;;;;;13.00;7.70;;;;;;;10.52;43.85;98875.45;235809;1197;27384;-77
2021/10/29 17:16:46;;;;;;;14.20;8.90;;;;;;;10.40;44.07;98873.80;235816;1197;24072;-76
2021/10/29 17:21:49;;;;;;;15.50;9.50;;;;;;;10.28;44.12;98866.73;235965;1198;22479;-77
2021/10/29 17:26:54;;;;;;;19.00;10.00;;;;;;;10.17;44.54;98863.41;236061;1198;22597;-77
2021/10/29 17:31:57;;;;;;;17.40;10.30;;;;;;;10.04;44.84;98862.36;235911;1198;24891;-76
2021/10/29 17:36:59;;;;;;;19.60;11.40;;;;;;;9.93;44.88;98865.09;235832;1184;24095;-76
2021/10/29 17:42:02;;;;;;;21.60;12.00;;;;;;;9.82;44.88;98870.80;235824;1198;24215;-79
2021/10/29 17:47:06;;;;;;;21.50;12.10;;;;;;;9.72;45.08;98873.45;235845;1198;24205;-76
2021/10/29 17:52:08;;;;;;;22.80;12.20;;;;;;;9.60;45.54;98869.42;235684;1190;24038;-77
2021/10/29 17:57:13;;;;;;;27.10;15.40;;;;;;;9.47;45.74;98871.23;235763;1197;25174;-77
2021/10/29 18:02:26;;;;;;;29.40;15.90;;;;;;;9.37;45.76;98873.23;235816;1198;22454;-76
2021/10/29 18:07:34;;;;;;;26.50;14.30;;;;;;;9.27;45.87;98874.03;235725;1198;22421;-76
2021/10/29 18:12:39;;;;;;;26.10;14.30;;;;;;;9.21;46.02;98876.21;235747;1194;25314;-76
2021/10/29 18:17:43;;;;;;;25.90;14.00;;;;;;;9.12;46.36;98868.58;235721;1190;24040;-76
2021/10/29 18:22:46;;;;;;;25.70;13.70;;;;;;;9.05;46.40;98875.19;235799;1197;23710;-76
2021/10/29 18:27:48;;;;;;;28.20;15.00;;;;;;;8.97;46.53;98879.91;235867;1198;22578;-77
2021/10/29 18:32:51;;;;;;;28.10;14.50;;;;;;;8.89;46.71;98876.76;235880;1198;25276;-76
2021/10/29 18:37:55;;;;;;;30.10;15.30;;;;;;;8.76;47.23;98876.60;235939;1177;24085;-77
2021/10/29 18:42:57;;;;;;;28.40;15.00;;;;;;;8.60;47.49;98873.83;235754;1197;24906;-77
2021/10/29 18:48:01;;;;;;;27.30;14.70;;;;;;;8.44;47.73;98872.30;235752;1198;23650;-74
2021/10/29 18:53:17;;;;;;;32.00;16.20;;;;;;;8.30;47.80;98881.77;236131;1190;24111;-77
2021/10/29 18:58:29;;;;;;;31.80;16.00;;;;;;;8.18;47.90;98881.80;235883;1193;22641;-75
2021/10/29 19:03:32;;;;;;;27.90;16.00;;;;;;;8.10;48.10;98879.68;235604;1199;22421;-77
2021/10/29 19:08:35;;;;;;;27.90;14.90;;;;;;;8.05;48.32;98875.63;235998;1190;24108;-76
2021/10/29 19:13:38;;;;;;;22.80;13.10;;;;;;;8.08;48.34;98877.19;235836;1197;25319;-77
2021/10/29 19:18:40;;;;;;;25.10;12.10;;;;;;;8.16;48.38;98879.14;235917;1193;24117;-78
2021/10/29 19:23:44;;;;;;;19.00;11.00;;;;;;;8.25;48.33;98883.49;235913;1197;22481;-77
2021/10/29 19:29:01;;;;;;;22.20;12.00;;;;;;;8.34;48.40;98887.96;235846;1197;25164;-83
2021/10/29 19:34:10;;;;;;;23.20;12.80;;;;;;;8.40;48.40;98889.92;235652;1193;24018;-76
2021/10/29 19:44:21;;;;;;;26.00;12.90;;;;;;;8.46;48.56;98888.49;235869;1190;24092;-76
2021/10/29 19:49:24;;;;;;;26.60;13.70;;;;;;;8.45;48.62;98885.92;236058;1198;24081;-77
2021/10/29 19:54:36;;;;;;;31.30;15.60;;;;;;;8.47;48.85;98893.57;235853;1193;25359;-77
2021/10/29 19:59:38;;;;;;;31.60;17.20;;;;;;;8.49;49.00;98895.21;235973;1198;24791;-77
2021/10/29 20:04:41;;;;;;;30.60;16.90;;;;;;;8.38;48.92;98894.36;235853;1184;24203;-77
2021/10/29 20:09:44;;;;;;;33.00;17.20;;;;;;;8.24;49.16;98893.27;235855;1197;24351;-76
2021/10/29 20:14:48;;;;;;;35.50;16.70;;;;;;;8.08;49.35;98894.25;235795;1197;24055;-81
2021/10/29 20:19:51;;;;;;;31.70;16.60;;;;;;;7.91;49.78;98892.08;235813;1198;24111;-77
2021/10/29 20:24:54;;;;;;;31.90;16.90;;;;;;;7.73;49.89;98886.11;235731;1197;22833;-77
2021/10/29 20:29:57;;;;;;;32.90;16.80;;;;;;;7.61;50.22;98892.02;235820;1197;22551;-77
2021/10/29 20:35:00;;;;;;;35.60;16.50;;;;;;;7.52;50.45;98886.78;235887;1183;24053;-76
2021/10/29 20:40:04;;;;;;;38.20;17.40;;;;;;;7.42;50.58;98889.01;235787;1184;25211;-77
2021/10/29 20:45:08;;;;;;;35.70;16.60;;;;;;;7.31;50.81;98888.84;235690;1198;24089;-77
2021/10/29 20:50:10;;;;;;;36.90;16.70;;;;;;;7.23;50.99;98894.88;236092;1190;22425;-76
2021/10/29 20:55:13;;;;;;;34.70;16.10;;;;;;;7.13;51.13;98898.33;235883;1193;22564;-76
2021/10/29 21:00:16;;;;;;;32.40;15.90;;;;;;;7.03;51.60;98897.81;235783;1194;22557;-79
2021/10/29 21:05:19;;;;;;;34.60;16.20;;;;;;;6.92;51.73;98901.98;235769;1193;24141;-78
2021/10/29 21:10:25;;;;;;;32.20;17.30;;;;;;;6.80;52.15;98898.70;235809;1198;24595;-77
2021/10/29 21:15:29;;;;;;;40.40;20.20;;;;;;;6.65;52.59;98897.77;235816;1198;25701;-76
2021/10/29 21:20:32;;;;;;;39.20;18.60;;;;;;;6.49;52.73;98896.63;235829;1198;24129;-77
2021/10/29 21:25:34;;;;;;;37.20;17.70;;;;;;;6.34;53.06;98892.36;235688;1193;24041;-75
2021/10/29 21:30:37;;;;;;;44.00;18.60;;;;;;;6.23;53.22;98891.43;235922;1178;24044;-76
2021/10/29 21:35:41;;;;;;;37.20;17.80;;;;;;;6.15;53.67;98883.67;235845;1197;24427;-76
2021/10/29 21:40:43;;;;;;;39.40;18.40;;;;;;;6.15;53.57;98880.27;235880;1190;25284;-77
2021/10/29 21:45:46;;;;;;;36.50;18.60;;;;;;;6.15;53.58;98876.59;235486;1198;25173;-77
2021/10/29 21:50:49;;;;;;;36.20;17.30;;;;;;;6.16;53.91;98866.54;235469;1198;24063;-75
2021/10/29 21:55:51;;;;;;;38.10;18.20;;;;;;;6.18;54.25;98868.09;235759;1190;24153;-76
2021/10/29 22:00:54;;;;;;;36.50;17.80;;;;;;;6.18;54.34;98864.48;235453;1198;24292;-76
2021/10/29 22:05:59;;;;;;;33.50;17.30;;;;;;;6.17;54.38;98860.22;235899;1197;22742;-76
2021/10/29 22:11:03;;;;;;;33.10;17.40;;;;;;;6.17;54.42;98852.61;235990;1174;24157;-79
2021/10/29 22:16:06;;;;;;;34.10;17.80;;;;;;;6.13;54.32;98848.39;235778;1197;25257;-77
2021/10/29 22:21:11;;;;;;;35.50;16.90;;;;;;;6.08;54.82;98845.43;235859;1198;24663;-78
2021/10/29 22:26:14;;;;;;;34.80;17.50;;;;;;;6.05;54.95;98845.24;235756;1198;22656;-77
2021/10/29 22:31:17;;;;;;;38.60;18.90;;;;;;;5.99;54.98;98845.79;235725;1195;25160;-77
2021/10/29 22:36:21;;;;;;;36.90;17.80;;;;;;;5.96;55.10;98847.56;235667;1190;24582;-76
2021/10/29 22:41:33;;;;;;;34.60;17.30;;;;;;;5.94;55.05;98849.29;235820;1184;24318;-76
2021/10/29 22:46:39;;;;;;;36.90;16.50;;;;;;;5.91;54.89;98852.41;235624;1198;24053;-77
2021/10/29 22:51:41;;;;;;;34.20;16.00;;;;;;;5.93;55.10;98854.08;235780;1190;24194;-77
2021/10/29 22:56:44;;;;;;;29.60;15.00;;;;;;;5.97;55.14;98848.26;235868;1197;24053;-75
2021/10/29 23:01:48;;;;;;;31.90;15.90;;;;;;;6.01;55.23;98851.40;235428;1198;24011;-72
2021/10/29 23:06:51;;;;;;;29.90;14.60;;;;;;;6.03;55.17;98850.13;235939;1197;22665;-73
2021/10/29 23:11:53;;;;;;;29.40;14.80;;;;;;;6.05;55.20;98849.61;235789;1197;25107;-74
2021/10/29 23:16:57;;;;;;;42.10;19.90;;;;;;;6.05;55.05;98848.34;235817;1197;23187;-72
2021/10/29 23:22:12;;;;;;;41.40;19.70;;;;;;;5.98;55.12;98856.24;235780;1193;24053;-74
2021/10/29 23:27:15;;;;;;;40.90;18.30;;;;;;;5.82;55.75;98851.71;235770;1198;22480;-74
2021/10/29 23:32:22;;;;;;;28.70;14.50;;;;;;;5.69;55.34;98847.94;235767;1190;25198;-74
2021/10/29 23:37:30;;;;;;;28.70;12.40;;;;;;;5.67;55.43;98846.33;235788;1198;24041;-73
2021/10/29 23:42:34;;;;;;;22.10;10.80;;;;;;;5.73;55.37;98846.50;235795;1198;24075;-75
2021/10/29 23:47:37;;;;;;;18.90;9.60;;;;;;;5.85;55.46;98842.79;235720;1198;24104;-72
2021/10/29 23:52:39;;;;;;;17.40;8.70;;;;;;;6.03;55.18;98835.19;235729;1198;22581;-72
2021/10/29 23:57:42;;;;;;;20.30;9.80;;;;;;;6.22;54.60;98834.00;235787;1198;24167;-72
